Terminal Aerodrome Forecast
Issued by NWS

Current Version | Previous Version | Text Only | Print | Product List | Glossary On
Versions: 1 2 3 4 5 6 7 8 9 10 11 12 13 14 15 16 17 18 19 20 21 22 23 24 25 26 27 28 29 30 31 32 33 34 35 36 37 38 39 40 41 42 43 44 45 46 47 48 49 50
000
FTUS41 KCTP 040325 AAC
TAFJST
TAF AMD
KJST 040325Z 0403/0424 15008KT 4SM -SHRA BR BKN035
      TEMPO 0405/0407 2SM SHRA BR SCT012 OVC025
     FM040700 14005KT 5SM -RA BR OVC018
     FM040900 14007KT 4SM -RA BR OVC007
     FM042100 34006KT 5SM HZ SCT025=

USA.gov is the U.S. government's official web portal to all federal, state and local government web resources and services.